Time;durP1;ratioP1;P1;durP2;ratioP2;P2;SDS_P1;SDS_P2;PMS_P1;PMS_P2;Temp;Humidity;BMP_temperature;BMP_pressure;BME280_temperature;BME280_humidity;BME280_pressure;Samples;Min_cycle;Max_cycle;Signal;HPM_P1;HPM_P2
2021/10/07 00:00:12;;;;;;;0.43;0.10;;;22.10;55.70;;;;;;5044205;28;20041;-42
2021/10/07 00:02:39;;;;;;;1.88;0.20;;;22.10;55.80;;;;;;5042862;28;20037;-42
2021/10/07 00:05:09;;;;;;;1.42;0.10;;;22.20;55.90;;;;;;5045949;28;20135;-42
2021/10/07 00:07:36;;;;;;;1.67;0.10;;;22.20;55.90;;;;;;5047065;28;20063;-42
2021/10/07 00:10:04;;;;;;;1.17;0.20;;;22.10;55.80;;;;;;5047432;28;20037;-42
2021/10/07 00:12:33;;;;;;;0.95;0.22;;;22.10;55.90;;;;;;5046296;28;20049;-42
2021/10/07 00:15:00;;;;;;;2.78;0.32;;;22.10;56.00;;;;;;5044378;28;20037;-41
2021/10/07 00:17:27;;;;;;;0.65;0.10;;;22.10;56.10;;;;;;5045560;28;20034;-42
2021/10/07 00:19:54;;;;;;;1.65;0.70;;;22.10;56.20;;;;;;5042441;28;20047;-42
2021/10/07 00:22:21;;;;;;;1.25;0.13;;;22.10;56.30;;;;;;5043302;28;20077;-42
2021/10/07 00:24:48;;;;;;;0.90;0.28;;;22.10;56.90;;;;;;5046439;28;20044;-43
2021/10/07 00:27:15;;;;;;;1.85;0.10;;;22.20;56.40;;;;;;5043967;28;20047;-42
2021/10/07 00:29:45;;;;;;;5.55;0.60;;;22.10;56.30;;;;;;5046126;28;20053;-42
2021/10/07 00:32:15;;;;;;;4.15;0.20;;;22.10;56.40;;;;;;5046044;28;20059;-41
2021/10/07 00:40:23;;;;;;;1.33;0.10;;;22.10;57.00;;;;;;5005720;28;20529;-42
2021/10/07 00:42:51;;;;;;;2.50;0.10;;;22.10;56.40;;;;;;5003743;28;20601;-42
2021/10/07 00:45:19;;;;;;;0.88;0.20;;;22.10;56.40;;;;;;5004055;28;20127;-42
2021/10/07 00:47:46;;;;;;;2.30;0.20;;;22.10;56.40;;;;;;5001744;28;20448;-41
2021/10/07 00:50:13;;;;;;;2.28;0.20;;;22.10;56.40;;;;;;5004211;28;20053;-42
2021/10/07 00:52:40;;;;;;;2.88;0.20;;;22.10;56.40;;;;;;5003827;28;20065;-41
2021/10/07 00:55:11;;;;;;;2.92;0.35;;;22.10;56.40;;;;;;5003347;28;20534;-42
2021/10/07 00:57:39;;;;;;;0.73;0.60;;;22.10;56.30;;;;;;5003389;28;20136;-42
2021/10/07 01:00:07;;;;;;;1.63;0.10;;;22.10;56.30;;;;;;5004250;28;20116;-42
2021/10/07 01:02:37;;;;;;;1.00;0.10;;;22.10;56.30;;;;;;5001203;28;20042;-42
2021/10/07 01:05:05;;;;;;;1.50;0.10;;;22.10;56.20;;;;;;4999608;28;20141;-42
2021/10/07 01:07:33;;;;;;;4.05;0.28;;;22.10;56.20;;;;;;5005870;28;20129;-42
2021/10/07 01:10:00;;;;;;;1.58;0.10;;;22.00;56.10;;;;;;5004665;28;20585;-42
2021/10/07 01:12:27;;;;;;;1.48;0.25;;;22.10;56.10;;;;;;5034965;28;20060;-42
2021/10/07 01:14:57;;;;;;;0.93;0.10;;;22.00;56.10;;;;;;5046230;28;20251;-42
2021/10/07 01:17:26;;;;;;;1.00;0.10;;;22.00;56.00;;;;;;5046393;28;20041;-42
2021/10/07 01:19:56;;;;;;;0.65;0.10;;;22.00;56.00;;;;;;5046376;28;20107;-42
2021/10/07 01:22:25;;;;;;;1.42;0.20;;;22.00;56.00;;;;;;5046527;28;20424;-42
2021/10/07 01:24:53;;;;;;;0.93;0.20;;;22.00;56.00;;;;;;5046545;28;20075;-41
2021/10/07 01:27:23;;;;;;;1.25;0.10;;;22.00;56.00;;;;;;5045459;28;20045;-42
2021/10/07 01:29:53;;;;;;;1.65;0.10;;;22.00;56.00;;;;;;5046022;28;20041;-41
2021/10/07 01:32:20;;;;;;;0.55;0.20;;;22.00;56.00;;;;;;5045882;28;20033;-42
2021/10/07 01:34:47;;;;;;;2.58;0.20;;;22.00;56.10;;;;;;5046235;28;20041;-42
2021/10/07 01:37:16;;;;;;;2.50;0.40;;;22.00;56.10;;;;;;5045865;28;20037;-42
2021/10/07 01:39:43;;;;;;;1.55;0.10;;;21.90;56.00;;;;;;5044862;28;20048;-42
2021/10/07 01:42:10;;;;;;;1.63;0.10;;;22.00;56.10;;;;;;5046722;28;20047;-42
2021/10/07 01:44:37;;;;;;;1.25;0.10;;;21.90;56.00;;;;;;5047923;28;20500;-42
2021/10/07 01:47:04;;;;;;;0.75;0.75;;;22.00;56.10;;;;;;5048633;28;20043;-43
2021/10/07 01:49:31;;;;;;;1.48;0.10;;;21.90;56.00;;;;;;5047610;28;20045;-42
2021/10/07 01:51:58;;;;;;;1.75;0.40;;;21.90;56.00;;;;;;5049617;28;20048;-42
2021/10/07 01:54:26;;;;;;;1.90;0.40;;;21.90;56.10;;;;;;5046777;28;20045;-42
2021/10/07 01:56:53;;;;;;;1.45;0.10;;;21.90;56.10;;;;;;5048794;28;20124;-42
2021/10/07 01:59:20;;;;;;;1.65;0.10;;;21.90;56.10;;;;;;5049436;28;20048;-42
2021/10/07 02:01:47;;;;;;;0.45;0.05;;;21.90;56.10;;;;;;5048438;28;20047;-43
2021/10/07 02:04:15;;;;;;;0.73;0.10;;;21.90;56.00;;;;;;5043204;28;20608;-42
2021/10/07 02:06:42;;;;;;;1.17;0.10;;;21.90;56.00;;;;;;5048957;28;20084;-42
2021/10/07 02:09:09;;;;;;;0.20;0.10;;;21.90;56.00;;;;;;5049000;28;20041;-42
2021/10/07 02:11:38;;;;;;;0.65;0.10;;;21.80;55.90;;;;;;5048375;28;20040;-42
2021/10/07 02:14:05;;;;;;;1.10;0.10;;;21.90;56.00;;;;;;5048855;28;20045;-42
2021/10/07 02:16:34;;;;;;;1.52;0.10;;;21.90;56.00;;;;;;5050436;28;20041;-42
2021/10/07 02:19:01;;;;;;;0.20;0.10;;;21.90;55.90;;;;;;5049789;28;20127;-42
2021/10/07 02:21:28;;;;;;;1.05;0.10;;;21.80;55.80;;;;;;5048854;28;20124;-41
2021/10/07 02:23:55;;;;;;;1.95;0.15;;;21.80;55.80;;;;;;5048628;28;20120;-41
2021/10/07 02:26:22;;;;;;;1.00;0.10;;;21.80;55.80;;;;;;5048361;28;20041;-41
2021/10/07 02:28:51;;;;;;;1.40;0.10;;;21.80;55.80;;;;;;5047722;28;20041;-41
2021/10/07 02:31:18;;;;;;;0.98;0.17;;;21.80;55.80;;;;;;5048203;28;20044;-41
2021/10/07 02:33:47;;;;;;;0.93;0.10;;;21.80;55.80;;;;;;5048466;28;20060;-42
2021/10/07 02:36:14;;;;;;;0.30;0.10;;;21.80;55.70;;;;;;5040236;28;20139;-41
2021/10/07 02:38:41;;;;;;;0.80;0.10;;;21.80;55.70;;;;;;5047910;28;20053;-42
2021/10/07 02:41:08;;;;;;;1.20;0.30;;;21.80;55.70;;;;;;5042186;28;20037;-41
2021/10/07 02:43:36;;;;;;;1.95;0.10;;;21.80;55.70;;;;;;5049321;28;20041;-41
2021/10/07 02:46:04;;;;;;;1.88;0.10;;;21.80;55.70;;;;;;5047442;28;20044;-41
2021/10/07 02:48:31;;;;;;;0.15;0.10;;;21.80;55.60;;;;;;5048095;28;20135;-42
2021/10/07 02:50:58;;;;;;;1.13;0.10;;;21.70;55.60;;;;;;5048317;28;20120;-42
2021/10/07 02:53:30;;;;;;;1.08;0.55;;;21.80;56.20;;;;;;5047204;28;20065;-42
2021/10/07 02:55:57;;;;;;;0.80;0.10;;;21.70;55.60;;;;;;5047976;28;20464;-41
2021/10/07 02:58:24;;;;;;;1.48;0.10;;;21.70;55.60;;;;;;5049671;28;20064;-42
2021/10/07 03:00:51;;;;;;;1.10;0.30;;;21.70;55.60;;;;;;5048668;28;20762;-41
2021/10/07 03:03:20;;;;;;;0.08;0.03;;;21.70;55.60;;;;;;5048037;28;20069;-41
2021/10/07 03:05:48;;;;;;;1.45;0.35;;;21.70;55.60;;;;;;5047097;28;20049;-41
2021/10/07 03:08:15;;;;;;;1.42;0.10;;;21.70;55.50;;;;;;5047897;28;20033;-41
2021/10/07 03:10:42;;;;;;;0.32;0.10;;;21.70;56.10;;;;;;5048060;28;20045;-42
2021/10/07 03:13:09;;;;;;;0.38;0.10;;;21.70;55.50;;;;;;5048817;28;20051;-41
2021/10/07 03:15:36;;;;;;;0.20;0.10;;;21.70;55.50;;;;;;5047653;28;20041;-41
2021/10/07 03:18:04;;;;;;;0.63;0.55;;;21.70;55.50;;;;;;5046425;28;20041;-42
2021/10/07 03:20:32;;;;;;;0.70;0.43;;;21.70;55.70;;;;;;5040054;28;20037;-42
2021/10/07 03:22:59;;;;;;;0.38;0.20;;;21.70;55.90;;;;;;5047136;28;20037;-42
2021/10/07 03:25:27;;;;;;;0.30;0.10;;;21.60;56.00;;;;;;5049112;28;20457;-42
2021/10/07 03:27:54;;;;;;;1.48;0.10;;;21.60;56.10;;;;;;5046121;28;20488;-41
2021/10/07 03:30:21;;;;;;;0.68;0.10;;;21.70;56.30;;;;;;5042364;28;20041;-43
2021/10/07 03:32:48;;;;;;;1.10;0.00;;;21.60;56.40;;;;;;5044826;28;20484;-41
2021/10/07 03:35:15;;;;;;;0.43;0.10;;;21.60;56.40;;;;;;5045467;28;20513;-41
2021/10/07 03:37:43;;;;;;;3.00;0.10;;;21.60;57.10;;;;;;5047106;28;20131;-41
2021/10/07 03:40:12;;;;;;;0.47;0.10;;;21.60;56.60;;;;;;5048126;28;20045;-42
2021/10/07 03:42:39;;;;;;;0.75;0.45;;;21.60;56.60;;;;;;5047215;28;20052;-41
2021/10/07 03:45:08;;;;;;;0.22;0.10;;;21.60;56.60;;;;;;5046984;28;20040;-41
2021/10/07 03:47:38;;;;;;;2.33;0.10;;;21.50;56.60;;;;;;5047283;28;20043;-40
2021/10/07 03:50:06;;;;;;;0.98;0.10;;;21.50;57.10;;;;;;5047687;28;20037;-42
2021/10/07 03:52:34;;;;;;;0.65;0.65;;;21.50;56.60;;;;;;5047713;28;20123;-41
2021/10/07 03:55:02;;;;;;;0.55;0.10;;;21.50;56.60;;;;;;5047121;28;20072;-42
2021/10/07 03:57:30;;;;;;;0.22;0.10;;;21.50;56.60;;;;;;5046926;28;20033;-41
2021/10/07 03:59:57;;;;;;;1.45;0.10;;;21.50;56.60;;;;;;5043798;28;20114;-41
2021/10/07 04:02:24;;;;;;;0.17;0.00;;;21.50;56.60;;;;;;5046896;28;20103;-42
2021/10/07 04:04:51;;;;;;;2.03;0.10;;;21.50;56.60;;;;;;5046902;28;20048;-41
2021/10/07 04:07:19;;;;;;;0.52;0.13;;;21.50;56.60;;;;;;5046342;28;20479;-42
2021/10/07 04:09:46;;;;;;;0.50;0.10;;;21.50;56.60;;;;;;5046872;28;20122;-46
2021/10/07 04:12:14;;;;;;;0.30;0.00;;;21.50;56.60;;;;;;5045877;28;20057;-42
2021/10/07 04:14:41;;;;;;;0.77;0.10;;;21.50;56.60;;;;;;5046891;28;20085;-42
2021/10/07 04:17:08;;;;;;;1.23;0.10;;;21.40;56.60;;;;;;5047112;28;20126;-42
2021/10/07 04:19:35;;;;;;;0.65;0.00;;;21.40;56.60;;;;;;5047328;28;20064;-42
2021/10/07 04:22:03;;;;;;;1.48;0.03;;;21.40;56.50;;;;;;5047427;28;20040;-42
2021/10/07 04:24:30;;;;;;;0.28;0.10;;;21.40;56.60;;;;;;5046384;28;20086;-42
2021/10/07 04:26:57;;;;;;;1.65;0.10;;;21.40;56.60;;;;;;5046675;28;20061;-42
2021/10/07 04:29:26;;;;;;;0.45;0.10;;;21.40;56.60;;;;;;5046829;28;20041;-42
2021/10/07 04:31:53;;;;;;;0.32;0.10;;;21.40;56.60;;;;;;5045999;28;20095;-42
2021/10/07 04:34:20;;;;;;;3.63;0.57;;;21.40;56.60;;;;;;5048028;28;20052;-48
2021/10/07 04:36:47;;;;;;;1.17;0.10;;;21.40;56.60;;;;;;5046375;28;20115;-41
2021/10/07 04:39:14;;;;;;;0.52;0.10;;;21.40;56.60;;;;;;5043373;28;20060;-42
2021/10/07 04:41:41;;;;;;;2.45;0.10;;;21.40;56.50;;;;;;5046075;28;20114;-42
2021/10/07 04:44:08;;;;;;;1.88;0.20;;;21.40;56.50;;;;;;5046635;28;20036;-40
2021/10/07 04:46:37;;;;;;;2.08;0.10;;;21.40;56.50;;;;;;5047023;28;20139;-41
2021/10/07 04:49:04;;;;;;;0.22;0.10;;;21.40;56.50;;;;;;5039866;28;20045;-41
2021/10/07 04:51:31;;;;;;;2.63;0.35;;;21.40;56.50;;;;;;5039972;28;20120;-41
2021/10/07 04:53:58;;;;;;;0.55;0.20;;;21.40;56.50;;;;;;5041470;28;20123;-42
2021/10/07 04:56:25;;;;;;;0.60;0.10;;;21.40;56.50;;;;;;5046787;28;20072;-42
2021/10/07 04:58:54;;;;;;;0.10;0.10;;;21.40;56.50;;;;;;5046505;28;20049;-41
2021/10/07 05:01:21;;;;;;;0.10;0.10;;;21.40;56.50;;;;;;5046108;28;20065;-42
2021/10/07 05:03:50;;;;;;;0.93;0.10;;;21.30;56.50;;;;;;5044401;28;20041;-42
2021/10/07 05:06:17;;;;;;;1.17;0.10;;;21.40;56.50;;;;;;5044444;28;20139;-41
2021/10/07 05:08:44;;;;;;;1.65;0.10;;;21.30;56.40;;;;;;5040207;28;20111;-42
2021/10/07 05:11:11;;;;;;;0.52;0.30;;;21.30;56.40;;;;;;5043943;28;20485;-43
2021/10/07 05:13:38;;;;;;;0.73;0.00;;;21.30;56.40;;;;;;5045600;28;20491;-44
2021/10/07 05:16:06;;;;;;;1.27;0.10;;;21.30;56.40;;;;;;5044488;28;20735;-41
2021/10/07 05:18:33;;;;;;;1.60;0.47;;;21.30;56.40;;;;;;5041482;28;20041;-43
2021/10/07 05:21:01;;;;;;;1.95;0.10;;;21.30;56.40;;;;;;5049127;28;20041;-42
2021/10/07 05:23:29;;;;;;;0.65;0.10;;;21.30;56.30;;;;;;5050110;28;20060;-42
2021/10/07 05:25:56;;;;;;;1.80;0.10;;;21.30;56.30;;;;;;5048824;28;20194;-42
2021/10/07 05:28:24;;;;;;;0.30;0.00;;;21.30;56.30;;;;;;5044228;28;20133;-42
2021/10/07 05:30:51;;;;;;;1.98;0.10;;;21.30;56.30;;;;;;5049320;28;20037;-42
2021/10/07 05:33:20;;;;;;;0.38;0.10;;;21.30;56.30;;;;;;5046320;28;20497;-42
2021/10/07 05:35:47;;;;;;;1.75;0.30;;;21.30;56.30;;;;;;5049231;28;20037;-42
2021/10/07 05:38:16;;;;;;;0.52;0.08;;;21.30;56.20;;;;;;5045026;28;20033;-43
2021/10/07 05:40:43;;;;;;;1.10;0.10;;;21.20;56.20;;;;;;5046711;28;20469;-42
2021/10/07 05:43:11;;;;;;;0.47;0.10;;;21.30;56.20;;;;;;5050681;28;20079;-42
2021/10/07 05:45:38;;;;;;;0.77;0.00;;;21.30;56.20;;;;;;5049300;28;20085;-42
2021/10/07 05:48:06;;;;;;;0.57;0.20;;;21.20;56.20;;;;;;5045637;28;20044;-42
2021/10/07 05:50:33;;;;;;;0.40;0.40;;;21.20;56.10;;;;;;5048420;28;20520;-41
2021/10/07 05:53:00;;;;;;;0.75;0.20;;;21.20;56.10;;;;;;5047312;28;20033;-42
2021/10/07 05:55:28;;;;;;;0.80;0.10;;;21.20;56.10;;;;;;5050391;28;20045;-41
2021/10/07 05:57:55;;;;;;;0.47;0.10;;;21.20;56.30;;;;;;5048280;28;20072;-42
2021/10/07 06:00:22;;;;;;;0.40;0.17;;;21.20;56.10;;;;;;5047348;28;20029;-42
2021/10/07 06:02:49;;;;;;;0.70;0.10;;;21.20;56.10;;;;;;5046571;28;20171;-42
2021/10/07 06:05:16;;;;;;;2.05;0.30;;;21.20;56.10;;;;;;5048984;28;20033;-42
2021/10/07 06:07:44;;;;;;;1.27;0.17;;;21.20;56.10;;;;;;5044056;28;20215;-41
2021/10/07 06:10:11;;;;;;;3.75;0.10;;;21.20;56.10;;;;;;5049252;28;20135;-42
2021/10/07 06:12:40;;;;;;;1.45;0.25;;;21.20;56.10;;;;;;5043112;28;20037;-41
2021/10/07 06:15:08;;;;;;;1.20;0.17;;;21.20;56.10;;;;;;5041992;28;20052;-42
2021/10/07 06:17:36;;;;;;;0.75;0.10;;;21.20;56.10;;;;;;5043285;28;20030;-41
2021/10/07 06:20:06;;;;;;;1.52;0.38;;;21.20;56.10;;;;;;5042218;28;20081;-41
2021/10/07 06:22:33;;;;;;;0.82;0.20;;;21.20;56.10;;;;;;5045463;28;20463;-42
2021/10/07 06:25:00;;;;;;;3.63;0.10;;;21.20;56.10;;;;;;5049395;28;20037;-41
2021/10/07 06:27:27;;;;;;;1.02;0.40;;;21.20;56.10;;;;;;5039144;28;20048;-41
2021/10/07 06:29:55;;;;;;;0.93;0.32;;;21.20;56.00;;;;;;5045788;28;20037;-42
2021/10/07 06:32:23;;;;;;;1.05;0.32;;;21.20;56.00;;;;;;5044179;28;20081;-41
2021/10/07 06:34:50;;;;;;;1.48;0.10;;;21.20;56.00;;;;;;5048549;28;20524;-41
2021/10/07 06:37:17;;;;;;;0.88;0.20;;;21.10;55.90;;;;;;5050259;28;20044;-42
2021/10/07 06:39:44;;;;;;;0.68;0.10;;;21.20;56.00;;;;;;5046755;28;20045;-41
2021/10/07 06:42:11;;;;;;;0.75;0.20;;;21.20;56.00;;;;;;5047427;28;20454;-41
2021/10/07 06:44:38;;;;;;;1.75;0.20;;;21.10;55.90;;;;;;5047658;28;20037;-41
2021/10/07 06:47:06;;;;;;;0.68;0.10;;;21.20;55.90;;;;;;5047931;28;20037;-41
2021/10/07 06:49:33;;;;;;;0.38;0.10;;;21.20;55.90;;;;;;5048831;28;20041;-42
2021/10/07 06:52:00;;;;;;;1.15;0.10;;;21.20;55.90;;;;;;5049075;28;20045;-42
2021/10/07 06:54:27;;;;;;;0.38;0.10;;;21.10;55.80;;;;;;5046893;28;20425;-41
2021/10/07 06:56:55;;;;;;;1.45;0.13;;;21.10;55.80;;;;;;5048249;28;20125;-43
2021/10/07 06:59:22;;;;;;;0.85;0.10;;;21.10;55.80;;;;;;5048356;28;20029;-42
2021/10/07 07:01:49;;;;;;;0.60;0.17;;;21.10;55.70;;;;;;5047727;28;20069;-41
2021/10/07 07:04:17;;;;;;;0.98;0.10;;;21.20;55.80;;;;;;5049817;28;20055;-42
2021/10/07 07:06:45;;;;;;;0.68;0.22;;;21.20;55.80;;;;;;5042358;28;20053;-41
2021/10/07 07:09:12;;;;;;;0.80;0.10;;;21.20;55.80;;;;;;5047466;28;20121;-41
2021/10/07 07:11:39;;;;;;;0.50;0.17;;;21.20;55.70;;;;;;5046563;28;20029;-41
2021/10/07 07:14:07;;;;;;;1.15;0.75;;;21.20;55.70;;;;;;5047644;28;20120;-43
2021/10/07 07:16:34;;;;;;;2.83;0.52;;;21.20;55.70;;;;;;5048861;28;20052;-42
2021/10/07 07:19:01;;;;;;;0.68;0.30;;;21.20;55.60;;;;;;5047653;28;20053;-41
2021/10/07 07:21:32;;;;;;;0.60;0.20;;;21.20;55.60;;;;;;5047192;28;20510;-41
2021/10/07 07:24:00;;;;;;;1.40;0.10;;;21.20;55.50;;;;;;5041421;28;20041;-41
2021/10/07 07:26:29;;;;;;;1.40;0.20;;;21.20;55.50;;;;;;5046632;28;20037;-42
2021/10/07 07:28:56;;;;;;;1.38;0.10;;;21.20;55.50;;;;;;5043918;28;20442;-41
2021/10/07 07:31:24;;;;;;;0.50;0.20;;;21.20;55.20;;;;;;5045127;28;20110;-41
2021/10/07 07:33:52;;;;;;;4.47;0.47;;;21.30;55.80;;;;;;5042151;28;20075;-41
2021/10/07 07:36:21;;;;;;;2.97;0.13;;;21.30;55.80;;;;;;5040893;28;20043;-42
2021/10/07 07:38:50;;;;;;;3.88;0.10;;;21.30;55.70;;;;;;5042766;28;20517;-41
2021/10/07 07:41:18;;;;;;;1.85;0.10;;;21.30;55.70;;;;;;5045712;28;20037;-42
2021/10/07 07:43:46;;;;;;;0.43;0.10;;;21.30;55.60;;;;;;5045987;28;20045;-46
2021/10/07 07:46:17;;;;;;;3.63;0.45;;;21.40;55.70;;;;;;5048025;28;20045;-46
2021/10/07 07:48:45;;;;;;;3.40;0.52;;;21.40;55.70;;;;;;5042736;28;20033;-49
2021/10/07 07:51:12;;;;;;;2.17;0.38;;;21.40;55.90;;;;;;5043056;28;20815;-62
2021/10/07 07:53:39;;;;;;;0.85;0.10;;;21.50;56.20;;;;;;5045789;28;20419;-59
2021/10/07 07:56:08;;;;;;;3.22;0.30;;;21.50;56.30;;;;;;5044942;28;20456;-64
2021/10/07 07:58:35;;;;;;;2.78;0.10;;;21.50;56.40;;;;;;5041075;28;20045;-56
2021/10/07 08:01:03;;;;;;;1.50;0.20;;;21.50;56.60;;;;;;5047169;28;20047;-59
2021/10/07 08:03:31;;;;;;;2.42;0.20;;;21.60;56.70;;;;;;5041150;28;20437;-62
2021/10/07 08:05:58;;;;;;;4.10;0.30;;;21.60;56.80;;;;;;5042362;28;20434;-59
2021/10/07 08:08:25;;;;;;;0.80;0.20;;;21.70;56.90;;;;;;5042717;28;20043;-60
2021/10/07 08:10:52;;;;;;;2.38;0.35;;;21.70;56.80;;;;;;5043401;28;20148;-58
2021/10/07 08:13:21;;;;;;;2.03;0.20;;;21.70;56.70;;;;;;5045894;28;20043;-62
2021/10/07 08:15:50;;;;;;;0.82;0.43;;;21.70;56.60;;;;;;5045602;28;20071;-59
2021/10/07 08:18:17;;;;;;;2.72;0.25;;;21.70;56.70;;;;;;5043510;28;20409;-40
2021/10/07 08:20:44;;;;;;;0.95;0.13;;;21.70;56.70;;;;;;5042765;28;20517;-52
2021/10/07 08:23:13;;;;;;;7.10;0.60;;;21.80;56.70;;;;;;5040745;28;20522;-41
2021/10/07 08:25:40;;;;;;;3.03;0.60;;;21.80;56.60;;;;;;5045990;28;20539;-41
2021/10/07 08:28:09;;;;;;;3.97;0.30;;;21.90;56.40;;;;;;5041147;28;20049;-41
2021/10/07 08:30:37;;;;;;;5.30;0.73;;;21.90;56.20;;;;;;5045926;28;20040;-41
2021/10/07 08:33:05;;;;;;;2.28;0.38;;;21.90;56.10;;;;;;5040054;28;20041;-44
2021/10/07 08:35:32;;;;;;;5.07;0.50;;;21.90;56.00;;;;;;5040765;28;20410;-51
2021/10/07 08:38:00;;;;;;;3.53;0.20;;;21.90;56.20;;;;;;5043435;28;20052;-48
2021/10/07 08:40:27;;;;;;;2.35;0.50;;;22.00;56.30;;;;;;5045797;28;20715;-44
2021/10/07 08:42:54;;;;;;;8.95;3.08;;;22.00;56.00;;;;;;5044284;28;20532;-49
2021/10/07 08:45:21;;;;;;;13.60;4.15;;;22.00;56.20;;;;;;5046423;28;20041;-47
2021/10/07 08:47:52;;;;;;;18.98;7.30;;;22.10;56.40;;;;;;5046467;28;20525;-53
2021/10/07 08:50:19;;;;;;;19.13;5.75;;;22.20;56.70;;;;;;5043129;28;20071;-50
2021/10/07 08:52:47;;;;;;;23.13;7.22;;;22.20;56.90;;;;;;5045116;28;20387;-53
2021/10/07 08:55:14;;;;;;;12.85;4.70;;;22.30;56.90;;;;;;5049935;28;20052;-54
2021/10/07 08:57:42;;;;;;;8.73;5.15;;;22.40;56.80;;;;;;5047971;28;20060;-54
2021/10/07 09:00:12;;;;;;;9.35;4.20;;;22.50;56.90;;;;;;5048707;28;20131;-45
2021/10/07 09:02:40;;;;;;;11.02;3.65;;;22.50;56.90;;;;;;5048758;28;20140;-49
2021/10/07 09:05:12;;;;;;;10.27;4.18;;;22.60;56.80;;;;;;5049760;28;20040;-47
2021/10/07 09:08:04;;;;;;;9.20;3.85;;;22.70;56.70;;;;;;5048753;28;20126;-49
2021/10/07 09:10:39;;;;;;;11.88;4.22;;;22.70;56.40;;;;;;5033514;28;20056;-47
2021/10/07 09:13:09;;;;;;;6.13;2.20;;;22.70;56.40;;;;;;5042263;28;20045;-41
2021/10/07 09:15:41;;;;;;;12.52;4.60;;;22.70;56.40;;;;;;5039623;28;20041;-44
2021/10/07 09:18:09;;;;;;;8.73;3.72;;;22.80;56.40;;;;;;5044097;28;20033;-41
2021/10/07 09:20:40;;;;;;;12.13;3.35;;;22.80;56.40;;;;;;5048293;28;20037;-41
2021/10/07 09:23:09;;;;;;;8.45;3.15;;;22.80;56.30;;;;;;5045466;28;20091;-45
2021/10/07 09:26:07;;;;;;;7.78;2.97;;;22.80;56.20;;;;;;5047157;28;20080;-43
2021/10/07 09:28:50;;;;;;;4.93;2.15;;;22.90;56.30;;;;;;5043404;28;20045;-49
2021/10/07 09:31:24;;;;;;;5.82;2.25;;;23.00;56.30;;;;;;5050976;28;20071;-46
2021/10/07 09:33:55;;;;;;;6.45;1.80;;;23.00;56.30;;;;;;5044767;28;20052;-45
2021/10/07 09:36:24;;;;;;;4.72;2.10;;;23.00;56.30;;;;;;5047818;28;20045;-50
2021/10/07 09:38:53;;;;;;;4.57;2.80;;;23.10;56.40;;;;;;5048007;28;20041;-47
2021/10/07 09:41:22;;;;;;;2.80;0.70;;;23.10;56.50;;;;;;5048439;28;20049;-52
2021/10/07 09:43:54;;;;;;;2.80;1.17;;;23.10;56.60;;;;;;5050091;28;20041;-49
2021/10/07 09:46:45;;;;;;;4.10;1.55;;;23.20;56.80;;;;;;5047472;28;20044;-45
2021/10/07 09:49:14;;;;;;;7.85;1.65;;;23.30;57.00;;;;;;5049690;28;20051;-51
2021/10/07 09:51:44;;;;;;;3.00;0.98;;;23.30;57.20;;;;;;5041078;28;20064;-46
2021/10/07 09:54:12;;;;;;;4.07;1.95;;;23.40;57.50;;;;;;5045094;28;20444;-45
2021/10/07 09:56:39;;;;;;;6.25;1.10;;;23.40;57.50;;;;;;5043758;28;20418;-44
2021/10/07 09:59:08;;;;;;;4.72;1.40;;;23.50;57.60;;;;;;5046997;28;20041;-42
2021/10/07 10:01:36;;;;;;;3.60;0.98;;;23.50;57.70;;;;;;5044180;28;20049;-61
2021/10/07 10:04:03;;;;;;;5.05;1.10;;;23.60;57.60;;;;;;5049995;28;20038;-60
2021/10/07 10:06:30;;;;;;;5.60;1.50;;;23.60;57.60;;;;;;5044569;28;20410;-60
2021/10/07 10:08:59;;;;;;;5.32;0.90;;;23.70;57.40;;;;;;5041216;28;20044;-65
2021/10/07 10:11:26;;;;;;;3.92;1.05;;;23.80;57.20;;;;;;5043106;28;20525;-59
2021/10/07 10:13:54;;;;;;;3.95;1.70;;;23.80;57.00;;;;;;5049239;28;20072;-66
2021/10/07 10:16:22;;;;;;;5.82;1.25;;;23.80;56.80;;;;;;5047761;28;20107;-65
2021/10/07 10:18:55;;;;;;;4.25;0.73;;;23.90;56.80;;;;;;5047794;28;20438;-64
2021/10/07 10:21:23;;;;;;;6.07;1.45;;;24.00;56.80;;;;;;5046783;28;20505;-64
2021/10/07 10:23:51;;;;;;;3.95;1.23;;;24.00;56.70;;;;;;5047269;28;20509;-63
2021/10/07 10:26:19;;;;;;;3.45;0.70;;;24.10;56.50;;;;;;5044736;28;20107;-62
2021/10/07 10:28:53;;;;;;;4.65;0.95;;;24.10;56.50;;;;;;5043323;28;20445;-63
2021/10/07 10:31:33;;;;;;;4.47;1.52;;;24.10;56.30;;;;;;5047266;28;20041;-67
2021/10/07 10:34:10;;;;;;;3.75;1.33;;;24.10;56.10;;;;;;5047816;28;20056;-67
2021/10/07 10:36:40;;;;;;;3.50;2.15;;;24.20;56.10;;;;;;5047647;28;20040;-64
2021/10/07 10:39:13;;;;;;;2.33;1.05;;;24.20;55.90;;;;;;5045468;28;20037;-61
2021/10/07 10:41:48;;;;;;;6.40;1.02;;;24.20;55.70;;;;;;5044619;28;20037;-62
2021/10/07 10:44:40;;;;;;;2.83;0.65;;;24.30;55.60;;;;;;5047673;28;20114;-61
2021/10/07 10:47:25;;;;;;;5.18;0.70;;;24.30;55.40;;;;;;5046363;28;20095;-62
2021/10/07 10:50:11;;;;;;;3.17;0.85;;;24.30;55.30;;;;;;5046912;28;29054;-61
2021/10/07 10:52:46;;;;;;;4.00;0.40;;;24.30;55.20;;;;;;5046565;28;20053;-67
2021/10/07 10:55:15;;;;;;;3.60;0.47;;;24.30;55.10;;;;;;5049272;28;20142;-72
2021/10/07 10:57:45;;;;;;;3.65;0.60;;;24.30;55.00;;;;;;5045622;28;20047;-64
2021/10/07 11:00:19;;;;;;;3.63;0.70;;;24.40;54.80;;;;;;5046251;28;20831;-63
2021/10/07 11:02:47;;;;;;;3.92;0.60;;;24.40;54.70;;;;;;5045176;28;20087;-57
2021/10/07 11:05:19;;;;;;;2.92;0.40;;;24.40;54.60;;;;;;5047532;28;20394;-66
2021/10/07 11:07:48;;;;;;;2.28;0.95;;;24.50;54.40;;;;;;5041160;28;20041;-46
2021/10/07 11:10:18;;;;;;;3.50;0.68;;;24.40;54.20;;;;;;5046128;28;20037;-45
2021/10/07 11:12:52;;;;;;;2.97;0.22;;;24.50;54.00;;;;;;5046223;28;20045;-63
2021/10/07 11:15:21;;;;;;;4.43;0.30;;;24.50;53.90;;;;;;5044220;28;20090;-47
2021/10/07 11:17:50;;;;;;;3.78;0.93;;;24.50;53.80;;;;;;5044198;28;20037;-47
2021/10/07 11:20:20;;;;;;;9.77;1.33;;;24.50;53.70;;;;;;5046947;28;20041;-49
2021/10/07 11:23:01;;;;;;;4.80;1.55;;;24.50;53.60;;;;;;5045022;28;20114;-62
2021/10/07 11:25:29;;;;;;;6.38;1.50;;;24.60;53.50;;;;;;5049523;28;20037;-62
2021/10/07 11:27:58;;;;;;;4.22;1.38;;;24.60;53.60;;;;;;5046778;28;20041;-60
2021/10/07 11:30:26;;;;;;;4.45;1.55;;;24.60;53.50;;;;;;5047564;28;20049;-59
2021/10/07 11:32:53;;;;;;;3.67;0.85;;;24.60;53.40;;;;;;5044618;28;20048;-58
2021/10/07 11:35:22;;;;;;;3.92;0.73;;;24.60;53.20;;;;;;5045776;28;20433;-46
2021/10/07 11:38:10;;;;;;;2.10;0.60;;;24.60;53.20;;;;;;5041068;28;20045;-46
2021/10/07 11:40:43;;;;;;;3.88;1.02;;;24.70;53.00;;;;;;5041420;28;20501;-47
2021/10/07 11:43:14;;;;;;;3.47;1.52;;;24.60;52.80;;;;;;5046379;28;20067;-46
2021/10/07 11:45:43;;;;;;;5.07;1.00;;;24.60;52.70;;;;;;5042035;28;20398;-44
2021/10/07 11:48:11;;;;;;;7.85;0.63;;;24.60;52.60;;;;;;5043067;28;20038;-45
2021/10/07 11:50:42;;;;;;;6.40;0.60;;;24.60;52.40;;;;;;5039922;28;20037;-48
2021/10/07 11:53:11;;;;;;;10.48;1.17;;;24.60;52.30;;;;;;5041458;28;20041;-51
2021/10/07 11:55:41;;;;;;;10.02;1.20;;;24.60;52.30;;;;;;5043997;28;20037;-43
2021/10/07 11:58:08;;;;;;;9.80;0.70;;;24.60;52.20;;;;;;5047240;28;20119;-54
2021/10/07 12:00:50;;;;;;;11.50;1.40;;;24.60;52.30;;;;;;5045345;28;20159;-45
2021/10/07 12:03:20;;;;;;;13.02;2.03;;;24.70;52.30;;;;;;5046122;28;20098;-59
2021/10/07 12:05:50;;;;;;;3.92;1.63;;;24.70;52.40;;;;;;5046725;28;20049;-49
2021/10/07 12:08:18;;;;;;;3.45;0.85;;;24.70;52.30;;;;;;5045542;28;20045;-55
2021/10/07 12:10:47;;;;;;;1.80;0.80;;;24.70;52.20;;;;;;5047161;28;20056;-67
2021/10/07 12:13:17;;;;;;;9.90;1.85;;;24.70;52.20;;;;;;5043779;28;20049;-61
2021/10/07 12:15:52;;;;;;;2.22;0.63;;;24.80;52.20;;;;;;5047082;28;20040;-55
2021/10/07 12:18:20;;;;;;;6.20;1.52;;;24.80;52.20;;;;;;5044815;28;20505;-63
2021/10/07 12:21:02;;;;;;;3.95;0.60;;;24.80;52.30;;;;;;5041821;28;20045;-61
2021/10/07 12:23:31;;;;;;;1.60;0.73;;;24.90;52.30;;;;;;5041812;28;20689;-61
2021/10/07 12:26:01;;;;;;;3.67;1.33;;;24.90;52.30;;;;;;5045584;28;20037;-59
2021/10/07 12:28:30;;;;;;;1.48;0.50;;;24.90;52.20;;;;;;5040738;28;20132;-61
2021/10/07 12:31:02;;;;;;;7.40;1.75;;;24.90;52.60;;;;;;5045936;28;20049;-45
2021/10/07 12:33:31;;;;;;;51.95;20.75;;;24.90;52.00;;;;;;5041419;28;20045;-46
2021/10/07 12:36:05;;;;;;;35.85;15.55;;;24.90;52.00;;;;;;5038796;28;20033;-44
2021/10/07 12:38:48;;;;;;;30.20;15.45;;;24.90;51.90;;;;;;5038121;28;20045;-47
2021/10/07 12:41:16;;;;;;;36.60;14.95;;;25.00;51.90;;;;;;5041178;28;20128;-43
2021/10/07 12:43:54;;;;;;;27.48;12.63;;;25.00;51.80;;;;;;5044656;28;20037;-53
2021/10/07 12:46:23;;;;;;;27.67;11.57;;;25.00;51.60;;;;;;5048121;28;20047;-47
2021/10/07 12:48:53;;;;;;;30.95;9.95;;;25.00;51.50;;;;;;5042522;28;20407;-52
2021/10/07 12:51:23;;;;;;;32.67;11.77;;;25.00;51.40;;;;;;5044381;28;20155;-47
2021/10/07 12:53:50;;;;;;;27.83;7.65;;;25.00;51.20;;;;;;5043185;28;20045;-49
2021/10/07 12:56:19;;;;;;;23.83;8.45;;;25.00;51.10;;;;;;5041920;28;20044;-48
2021/10/07 12:58:52;;;;;;;21.88;8.10;;;25.00;51.00;;;;;;5042400;28;20041;-48